createdAt,value
2023-05-18T00:01:16.967Z,97784.34
2023-05-18T00:03:43.880Z,97783.53
2023-05-18T00:06:10.970Z,97774.78
2023-05-18T00:08:38.602Z,97779.78
2023-05-18T00:11:07.384Z,97779.78
2023-05-18T00:13:34.345Z,97782.69
2023-05-18T00:16:01.290Z,97775.63
2023-05-18T00:18:28.532Z,97771.66
2023-05-18T00:20:59.121Z,97777.28
2023-05-18T00:23:30.928Z,97780.19
2023-05-18T00:26:02.169Z,97789.97
2023-05-18T00:28:29.354Z,97792.69
2023-05-18T00:30:56.465Z,97776.84
2023-05-18T00:33:23.310Z,97791.84
2023-05-18T00:35:50.021Z,97787.06
2023-05-18T00:38:16.806Z,97797.25
2023-05-18T00:40:44.046Z,97790.59
2023-05-18T00:43:10.786Z,97798.91
2023-05-18T00:45:37.498Z,97789.75
2023-05-18T00:48:04.843Z,97794.13
2023-05-18T00:50:31.968Z,97799.53
2023-05-18T00:52:59.186Z,97801.59
2023-05-18T00:55:28.112Z,97797.25
2023-05-18T00:57:56.628Z,97802.84
2023-05-18T01:00:24.341Z,97796.84
2023-05-18T01:02:51.915Z,97801.00
2023-05-18T01:05:20.273Z,97786.00
2023-05-18T01:07:48.806Z,97805.13
2023-05-18T01:10:17.469Z,97814.09
2023-05-18T01:12:56.600Z,97806.22
2023-05-18T01:15:37.363Z,97802.47
2023-05-18T01:18:29.120Z,97786.84
2023-05-18T01:20:57.643Z,97794.56
2023-05-18T01:23:42.563Z,97795.16
2023-05-18T01:26:30.168Z,97799.31
2023-05-18T01:29:01.095Z,97799.31
2023-05-18T01:31:28.315Z,97805.97
2023-05-18T01:33:55.021Z,97805.97
2023-05-18T01:36:21.872Z,97810.34
2023-05-18T01:38:48.765Z,97803.69
2023-05-18T01:41:26.884Z,97813.66
2023-05-18T01:44:03.832Z,97812.41
2023-05-18T01:47:08.332Z,97818.25
2023-05-18T01:49:48.210Z,97818.03
2023-05-18T01:52:27.575Z,97819.50
2023-05-18T01:54:57.612Z,97828.22
2023-05-18T01:57:27.336Z,97821.78
2023-05-18T01:59:55.449Z,97823.66
2023-05-18T02:02:22.251Z,97826.78
2023-05-18T02:04:49.674Z,97820.53
2023-05-18T02:07:16.514Z,97835.09
2023-05-18T02:09:44.458Z,97829.28
2023-05-18T02:12:11.788Z,97846.53
2023-05-18T02:14:38.515Z,97840.09
2023-05-18T02:17:07.246Z,97841.97
2023-05-18T02:19:38.459Z,97843.00
2023-05-18T02:22:07.024Z,97844.44
2023-05-18T02:24:34.541Z,97845.88
2023-05-18T02:27:01.619Z,97848.16
2023-05-18T02:29:28.328Z,97846.72
2023-05-18T02:31:55.046Z,97858.38
2023-05-18T02:34:22.885Z,97864.81
2023-05-18T02:36:49.603Z,97876.22
2023-05-18T02:39:16.589Z,97867.06
2023-05-18T02:41:43.229Z,97882.03
2023-05-18T02:44:09.978Z,97880.56
2023-05-18T02:46:36.615Z,97892.44
2023-05-18T02:49:03.344Z,97883.66
2023-05-18T02:51:31.542Z,97885.75
2023-05-18T02:53:58.237Z,97893.44
2023-05-18T02:56:24.969Z,97897.59
2023-05-18T02:58:57.937Z,97908.41
2023-05-18T03:01:28.399Z,97911.94
2023-05-18T03:03:57.833Z,97900.09
2023-05-18T03:06:26.727Z,97909.25
2023-05-18T03:08:54.507Z,97914.53
2023-05-18T03:11:24.944Z,97922.00
2023-05-18T03:13:51.993Z,97919.47
2023-05-18T03:16:18.934Z,97920.31
2023-05-18T03:18:46.209Z,97909.91
2023-05-18T03:21:13.850Z,97912.88
2023-05-18T03:23:40.898Z,97909.97
2023-05-18T03:26:11.595Z,97917.59
2023-05-18T03:28:39.166Z,97917.19
2023-05-18T03:31:06.121Z,97909.47
2023-05-18T03:33:32.880Z,97931.16
2023-05-18T03:36:04.495Z,97925.94
2023-05-18T03:38:31.264Z,97925.38
2023-05-18T03:40:58.000Z,97938.06
2023-05-18T03:43:26.108Z,97937.00
2023-05-18T03:45:53.605Z,97936.84
2023-05-18T03:48:21.096Z,97937.03
2023-05-18T03:50:48.906Z,97938.28
2023-05-18T03:53:19.328Z,97950.38
2023-05-18T03:55:46.621Z,97948.31
2023-05-18T03:58:13.447Z,97943.31
2023-05-18T04:00:40.602Z,97943.34
2023-05-18T04:03:07.427Z,97946.03
2023-05-18T04:05:34.345Z,97951.69
2023-05-18T04:08:01.061Z,97945.44
2023-05-18T04:10:27.853Z,97954.00
2023-05-18T04:12:54.567Z,97953.59
2023-05-18T04:15:21.391Z,97954.25
2023-05-18T04:17:51.326Z,97950.94
2023-05-18T04:20:18.656Z,97954.72
2023-05-18T04:22:48.630Z,97953.69
2023-05-18T04:25:16.207Z,97955.56
2023-05-18T04:27:45.695Z,97951.41
2023-05-18T04:30:13.366Z,97945.16
2023-05-18T04:32:42.912Z,97953.69
2023-05-18T04:35:11.717Z,97963.25
2023-05-18T04:37:41.658Z,97969.31
2023-05-18T04:40:14.197Z,97976.00
2023-05-18T04:42:48.454Z,97976.41
2023-05-18T04:45:19.633Z,97974.13
2023-05-18T04:47:48.300Z,97977.03
2023-05-18T04:50:19.086Z,97980.53
2023-05-18T04:52:49.106Z,97984.72
2023-05-18T04:55:28.709Z,97984.69
2023-05-18T04:57:57.040Z,97992.19
2023-05-18T05:00:31.661Z,97999.28
2023-05-18T05:02:59.357Z,97992.59
2023-05-18T05:05:27.123Z,98006.56
2023-05-18T05:07:54.416Z,98010.47
2023-05-18T05:10:21.669Z,98010.03
2023-05-18T05:12:50.014Z,98003.31
2023-05-18T05:15:17.365Z,97993.47
2023-05-18T05:17:44.086Z,98006.59
2023-05-18T05:20:11.410Z,98007.38
2023-05-18T05:22:38.228Z,98015.72
2023-05-18T05:25:06.325Z,98014.84
2023-05-18T05:27:33.290Z,97996.88
2023-05-18T05:29:59.932Z,98016.00
2023-05-18T05:32:26.668Z,98024.50
2023-05-18T05:34:53.416Z,98018.66
2023-05-18T05:37:20.077Z,98031.56
2023-05-18T05:39:46.795Z,98026.31
2023-05-18T05:42:14.358Z,98032.97
2023-05-18T05:44:41.175Z,98035.63
2023-05-18T05:47:09.857Z,98024.75
2023-05-18T05:49:36.742Z,98027.66
2023-05-18T05:52:03.672Z,98042.88
2023-05-18T05:54:30.643Z,98044.09
2023-05-18T05:56:57.357Z,98049.06
2023-05-18T05:59:23.989Z,98056.00
2023-05-18T06:01:51.025Z,98059.47
2023-05-18T06:04:17.765Z,98048.28
2023-05-18T06:06:44.467Z,98056.94
2023-05-18T06:09:11.151Z,98057.28
2023-05-18T06:11:38.002Z,98057.88
2023-05-18T06:14:04.749Z,98069.81
2023-05-18T06:16:31.900Z,98067.06
2023-05-18T06:18:58.764Z,98068.03
2023-05-18T06:21:25.725Z,98076.06
2023-05-18T06:23:52.394Z,98067.28
2023-05-18T06:26:19.049Z,98068.56
2023-05-18T06:28:45.887Z,98073.06
2023-05-18T06:31:13.051Z,98064.88
2023-05-18T06:33:40.102Z,98071.16
2023-05-18T06:36:07.139Z,98084.31
2023-05-18T06:38:33.871Z,98091.47
2023-05-18T06:41:00.631Z,98097.53
2023-05-18T06:43:28.476Z,98093.72
2023-05-18T06:45:56.928Z,98088.25
2023-05-18T06:48:27.160Z,98099.06
2023-05-18T06:50:54.501Z,98101.13
2023-05-18T06:53:22.261Z,98106.78
2023-05-18T06:55:49.048Z,98107.59
2023-05-18T06:58:15.855Z,98112.78
2023-05-18T07:00:42.668Z,98119.44
2023-05-18T07:03:09.516Z,98119.16
2023-05-18T07:05:39.163Z,98116.69
2023-05-18T07:08:07.433Z,98125.38
2023-05-18T07:10:35.731Z,98127.22
2023-05-18T07:13:02.482Z,98125.09
2023-05-18T07:15:29.699Z,98139.34
2023-05-18T07:17:56.799Z,98142.69
2023-05-18T07:20:25.967Z,98139.75
2023-05-18T07:22:55.288Z,98137.56
2023-05-18T07:25:22.880Z,98141.06
2023-05-18T07:27:52.246Z,98142.16
2023-05-18T07:30:19.182Z,98151.69
2023-05-18T07:32:46.077Z,98149.72
2023-05-18T07:35:12.962Z,98153.38
2023-05-18T07:37:39.747Z,98159.56
2023-05-18T07:40:07.200Z,98163.19
2023-05-18T07:42:34.188Z,98166.00
2023-05-18T07:45:00.950Z,98172.84
2023-05-18T07:47:27.649Z,98177.50
2023-05-18T07:49:54.356Z,98168.75
2023-05-18T07:52:21.045Z,98179.56
2023-05-18T07:54:47.716Z,98180.75
2023-05-18T07:57:14.459Z,98186.59
2023-05-18T07:59:41.424Z,98189.13
2023-05-18T08:02:08.229Z,98189.94
2023-05-18T08:04:34.976Z,98201.31
2023-05-18T08:07:02.094Z,98193.34
2023-05-18T08:09:28.866Z,98199.31
2023-05-18T08:11:55.823Z,98208.78
2023-05-18T08:14:22.485Z,98208.78
2023-05-18T08:16:49.387Z,98208.31
2023-05-18T08:19:16.528Z,98210.81
2023-05-18T08:21:43.569Z,98219.22
2023-05-18T08:24:10.200Z,98221.13
2023-05-18T08:26:37.213Z,98224.34
2023-05-18T08:29:09.778Z,98218.50
2023-05-18T08:31:37.799Z,98219.47
2023-05-18T08:34:08.323Z,98216.41
2023-05-18T08:36:36.209Z,98224.63
2023-05-18T08:39:03.038Z,98228.56
2023-05-18T08:41:34.535Z,98224.41
2023-05-18T08:44:06.765Z,98225.25
2023-05-18T08:46:42.786Z,98232.00
2023-05-18T08:49:10.582Z,98229.41
2023-05-18T08:51:38.019Z,98237.72
2023-05-18T08:54:07.907Z,98238.19
2023-05-18T08:56:35.777Z,98248.72
2023-05-18T08:59:08.078Z,98237.22
2023-05-18T09:01:35.402Z,98233.03
2023-05-18T09:04:02.617Z,98247.44
2023-05-18T09:06:29.450Z,98239.97
2023-05-18T09:08:59.718Z,98252.13
2023-05-18T09:11:28.025Z,98248.81
2023-05-18T09:13:55.230Z,98238.06
2023-05-18T09:16:22.002Z,98239.41
2023-05-18T09:18:48.976Z,98245.75
2023-05-18T09:21:15.901Z,98242.47
2023-05-18T09:23:43.771Z,98238.66
2023-05-18T09:26:11.391Z,98247.56
2023-05-18T09:28:40.628Z,98240.19
2023-05-18T09:31:17.013Z,98255.09
2023-05-18T09:33:45.328Z,98259.56
2023-05-18T09:36:12.321Z,98249.22
2023-05-18T09:38:43.238Z,98252.72
2023-05-18T09:41:12.611Z,98256.06
2023-05-18T09:43:40.053Z,98253.25
2023-05-18T09:46:11.537Z,98254.47
2023-05-18T09:48:42.181Z,98250.75
2023-05-18T09:51:11.186Z,98255.56
2023-05-18T09:53:37.853Z,98249.16
2023-05-18T09:56:07.223Z,98260.75
2023-05-18T09:58:39.110Z,98249.09
2023-05-18T10:01:06.087Z,98254.47
2023-05-18T10:03:41.710Z,98263.31
2023-05-18T10:06:10.025Z,98262.84
2023-05-18T10:08:38.042Z,98264.25
2023-05-18T10:11:06.016Z,98256.50
2023-05-18T10:13:34.082Z,98248.47
2023-05-18T10:16:07.449Z,98260.00
2023-05-18T10:18:38.447Z,98255.44
2023-05-18T10:21:10.114Z,98250.25
2023-05-18T10:23:37.359Z,98254.00
2023-05-18T10:26:09.987Z,98261.75
2023-05-18T10:28:45.298Z,98254.19
2023-05-18T10:31:15.509Z,98265.41
2023-05-18T10:33:44.768Z,98260.94
2023-05-18T10:36:12.486Z,98274.28
2023-05-18T10:38:43.613Z,98271.91
2023-05-18T10:41:12.308Z,98270.97
2023-05-18T10:43:41.102Z,98266.03
2023-05-18T10:46:09.721Z,98249.47
2023-05-18T10:48:39.246Z,98266.31
2023-05-18T10:51:08.453Z,98277.34
2023-05-18T10:53:36.555Z,98294.22
2023-05-18T10:56:03.795Z,98287.72
2023-05-18T10:58:32.074Z,98285.44
2023-05-18T11:01:01.325Z,98283.69
2023-05-18T11:03:28.628Z,98293.53
2023-05-18T11:06:08.890Z,98293.72
2023-05-18T11:08:44.551Z,98295.53
2023-05-18T11:11:11.230Z,98289.56
2023-05-18T11:13:43.490Z,98298.06
2023-05-18T11:16:10.309Z,98300.31
2023-05-18T11:18:42.367Z,98303.13
2023-05-18T11:21:22.146Z,98305.31
2023-05-18T11:24:16.056Z,98317.69
2023-05-18T11:26:44.745Z,98310.63
2023-05-18T11:29:18.670Z,98317.22
2023-05-18T11:31:53.945Z,98321.00
2023-05-18T11:34:40.982Z,98322.34
2023-05-18T11:37:10.089Z,98327.28
2023-05-18T11:39:44.779Z,98336.66
2023-05-18T11:42:18.728Z,98338.00
2023-05-18T11:44:53.166Z,98343.44
2023-05-18T11:47:19.955Z,98354.88
2023-05-18T11:49:51.235Z,98356.38
2023-05-18T11:52:22.836Z,98366.66
2023-05-18T11:54:52.944Z,98359.91
2023-05-18T11:57:23.898Z,98355.66
2023-05-18T11:59:56.091Z,98353.81
2023-05-18T12:02:26.923Z,98352.31
2023-05-18T12:04:55.083Z,98352.31
2023-05-18T12:07:22.688Z,98350.47
2023-05-18T12:09:49.659Z,98349.97
2023-05-18T12:12:20.141Z,98359.00
2023-05-18T12:14:54.014Z,98362.09
2023-05-18T12:17:20.714Z,98356.06
2023-05-18T12:19:49.100Z,98362.34
2023-05-18T12:22:16.094Z,98354.97
2023-05-18T12:24:44.211Z,98354.66
2023-05-18T12:27:12.170Z,98348.28
2023-05-18T12:29:42.935Z,98347.78
2023-05-18T12:32:12.068Z,98356.13
2023-05-18T12:34:39.758Z,98352.16
2023-05-18T12:37:08.025Z,98362.84
2023-05-18T12:39:35.236Z,98366.41
2023-05-18T12:42:17.600Z,98365.56
2023-05-18T12:44:45.365Z,98364.66
2023-05-18T12:47:13.710Z,98369.22
2023-05-18T12:49:43.114Z,98372.53
2023-05-18T12:52:11.836Z,98376.56
2023-05-18T12:54:55.588Z,98373.47
2023-05-18T12:57:25.654Z,98369.97
2023-05-18T12:59:55.196Z,98367.50
2023-05-18T13:02:28.965Z,98368.28
2023-05-18T13:05:05.121Z,98359.66
2023-05-18T13:07:31.799Z,98361.81
2023-05-18T13:10:12.349Z,98360.59
2023-05-18T13:12:41.184Z,98345.69
2023-05-18T13:15:12.134Z,98354.47
2023-05-18T13:17:39.043Z,98357.41
2023-05-18T13:20:15.666Z,98355.09
2023-05-18T13:22:43.542Z,98364.31
2023-05-18T13:25:10.511Z,98357.41
2023-05-18T13:27:38.238Z,98358.44
2023-05-18T13:30:05.515Z,98358.66
2023-05-18T13:32:33.664Z,98354.28
2023-05-18T13:35:00.514Z,98362.47
2023-05-18T13:37:27.262Z,98364.38
2023-05-18T13:39:53.860Z,98366.09
2023-05-18T13:42:21.654Z,98361.94
2023-05-18T13:44:48.321Z,98366.56
2023-05-18T13:47:15.052Z,98367.16
2023-05-18T13:49:41.661Z,98370.00
2023-05-18T13:52:08.359Z,98367.44
2023-05-18T13:54:35.027Z,98365.44
2023-05-18T13:57:02.363Z,98355.09
2023-05-18T13:59:29.128Z,98363.75
2023-05-18T14:01:55.915Z,98356.31
2023-05-18T14:04:22.577Z,98352.38
2023-05-18T14:06:49.586Z,98364.03
2023-05-18T14:09:16.288Z,98363.72
2023-05-18T14:11:42.910Z,98360.81
2023-05-18T14:14:09.498Z,98361.84
2023-05-18T14:16:36.980Z,98351.72
2023-05-18T14:19:03.684Z,98357.16
2023-05-18T14:21:31.277Z,98358.22
2023-05-18T14:23:57.908Z,98353.06
2023-05-18T14:26:24.582Z,98346.19
2023-05-18T14:28:52.344Z,98349.34
2023-05-18T14:31:18.996Z,98336.66
2023-05-18T14:33:45.734Z,98335.41
2023-05-18T14:36:12.369Z,98326.00
2023-05-18T14:38:38.992Z,98317.06
2023-05-18T14:41:05.857Z,98319.38
2023-05-18T14:43:32.489Z,98331.09
2023-05-18T14:46:08.040Z,98332.59
2023-05-18T14:48:35.586Z,98328.59
2023-05-18T14:51:02.209Z,98328.81
2023-05-18T14:53:28.849Z,98340.72
2023-05-18T14:55:55.578Z,98343.00
2023-05-18T14:58:22.345Z,98338.44
2023-05-18T15:00:48.991Z,98343.81
2023-05-18T15:03:16.033Z,98339.25
2023-05-18T15:05:44.394Z,98345.06
2023-05-18T15:08:11.147Z,98343.81
2023-05-18T15:10:37.744Z,98342.19
2023-05-18T15:13:04.836Z,98331.75
2023-05-18T15:15:31.624Z,98329.88
2023-05-18T15:17:58.359Z,98310.63
2023-05-18T15:20:25.190Z,98299.16
2023-05-18T15:22:51.869Z,98304.19
2023-05-18T15:25:18.733Z,98301.28
2023-05-18T15:27:45.459Z,98300.03
2023-05-18T15:30:12.777Z,98298.19
2023-05-18T15:32:40.062Z,98294.66
2023-05-18T15:35:07.559Z,98285.06
2023-05-18T15:37:34.180Z,98273.81
2023-05-18T15:40:01.012Z,98263.75
2023-05-18T15:42:27.637Z,98252.94
2023-05-18T15:44:54.258Z,98261.88
2023-05-18T15:47:21.283Z,98256.03
2023-05-18T15:49:47.970Z,98245.41
2023-05-18T15:52:14.579Z,98257.75
2023-05-18T15:54:41.299Z,98252.91
2023-05-18T15:57:08.125Z,98250.19
2023-05-18T15:59:34.766Z,98249.16
2023-05-18T16:02:01.414Z,98239.75
2023-05-18T16:04:28.121Z,98240.59
2023-05-18T16:06:55.239Z,98259.38
2023-05-18T16:09:22.089Z,98263.34
2023-05-18T16:11:49.373Z,98258.13
2023-05-18T16:14:16.053Z,98266.50
2023-05-18T16:16:42.741Z,98265.22
2023-05-18T16:19:09.518Z,98262.53
2023-05-18T16:21:36.258Z,98270.88
2023-05-18T16:24:03.004Z,98264.41
2023-05-18T16:26:29.668Z,98261.94
2023-05-18T16:28:56.573Z,98252.53
2023-05-18T16:31:23.215Z,98243.75
2023-05-18T16:33:49.966Z,98245.84
2023-05-18T16:36:16.653Z,98250.44
2023-05-18T16:38:43.328Z,98240.81
2023-05-18T16:41:10.928Z,98250.19
2023-05-18T16:43:37.581Z,98247.47
2023-05-18T16:46:04.304Z,98240.41
2023-05-18T16:48:30.982Z,98248.31
2023-05-18T16:50:57.731Z,98254.41
2023-05-18T16:53:24.337Z,98249.16
2023-05-18T16:55:51.021Z,98249.16
2023-05-18T16:58:17.677Z,98251.69
2023-05-18T17:00:44.319Z,98254.81
2023-05-18T17:03:11.046Z,98246.03
2023-05-18T17:05:37.760Z,98260.25
2023-05-18T17:08:04.861Z,98261.69
2023-05-18T17:10:34.581Z,98265.69
2023-05-18T17:13:01.292Z,98257.31
2023-05-18T17:15:28.381Z,98255.22
2023-05-18T17:17:55.014Z,98255.84
2023-05-18T17:20:21.785Z,98258.41
2023-05-18T17:22:48.545Z,98257.56
2023-05-18T17:25:15.245Z,98264.88
2023-05-18T17:27:42.004Z,98247.53
2023-05-18T17:30:09.076Z,98240.63
2023-05-18T17:32:35.733Z,98249.41
2023-05-18T17:35:03.129Z,98251.50
2023-05-18T17:37:29.785Z,98254.59
2023-05-18T17:39:56.444Z,98238.31
2023-05-18T17:42:23.141Z,98231.44
2023-05-18T17:44:49.773Z,98242.31
2023-05-18T17:47:17.494Z,98234.78
2023-05-18T17:49:44.296Z,98245.03
2023-05-18T17:52:11.175Z,98239.59
2023-05-18T17:54:37.827Z,98235.41
2023-05-18T17:57:04.596Z,98235.22
2023-05-18T17:59:31.366Z,98236.06
2023-05-18T18:01:58.037Z,98239.41
2023-05-18T18:04:24.777Z,98255.06
2023-05-18T18:06:54.378Z,98251.72
2023-05-18T18:09:22.245Z,98276.78
2023-05-18T18:11:49.212Z,98263.22
2023-05-18T18:14:17.347Z,98274.91
2023-05-18T18:16:44.443Z,98281.78
2023-05-18T18:19:11.192Z,98296.63
2023-05-18T18:21:37.976Z,98307.28
2023-05-18T18:24:05.074Z,98309.97
2023-05-18T18:26:32.259Z,98301.84
2023-05-18T18:28:58.912Z,98311.84
2023-05-18T18:31:25.858Z,98309.97
2023-05-18T18:33:52.580Z,98303.09
2023-05-18T18:36:19.232Z,98314.78
2023-05-18T18:38:46.104Z,98315.41
2023-05-18T18:41:15.038Z,98311.84
2023-05-18T18:43:41.652Z,98304.31
2023-05-18T18:46:08.362Z,98314.31
2023-05-18T18:48:35.083Z,98314.13
2023-05-18T18:51:01.773Z,98318.53
2023-05-18T18:53:28.398Z,98329.38
2023-05-18T18:55:56.663Z,98338.31
2023-05-18T18:58:24.383Z,98331.53
2023-05-18T19:00:51.114Z,98336.66
2023-05-18T19:03:17.732Z,98330.81
2023-05-18T19:05:44.449Z,98340.63
2023-05-18T19:08:11.104Z,98335.16
2023-05-18T19:10:37.877Z,98330.56
2023-05-18T19:13:07.255Z,98334.56
2023-05-18T19:15:35.212Z,98323.84
2023-05-18T19:18:03.106Z,98318.00
2023-05-18T19:20:29.833Z,98314.72
2023-05-18T19:22:56.570Z,98310.16
2023-05-18T19:25:26.441Z,98314.13
2023-05-18T19:27:53.580Z,98317.25
2023-05-18T19:30:21.609Z,98312.25
2023-05-18T19:32:49.885Z,98319.56
2023-05-18T19:35:18.947Z,98312.66
2023-05-18T19:37:46.941Z,98320.19
2023-05-18T19:40:13.669Z,98316.22
2023-05-18T19:42:40.403Z,98334.81
2023-05-18T19:45:07.436Z,98331.28
2023-05-18T19:47:34.344Z,98318.50
2023-05-18T19:50:01.247Z,98323.28
2023-05-18T19:52:27.871Z,98321.84
2023-05-18T19:54:54.556Z,98326.84
2023-05-18T19:57:21.441Z,98336.06
2023-05-18T19:59:48.139Z,98342.31
2023-05-18T20:02:14.816Z,98341.91
2023-05-18T20:04:43.100Z,98342.69
2023-05-18T20:07:09.994Z,98354.41
2023-05-18T20:09:36.863Z,98358.38
2023-05-18T20:12:03.796Z,98353.13
2023-05-18T20:14:30.683Z,98357.53
2023-05-18T20:17:00.308Z,98363.59
2023-05-18T20:19:27.732Z,98356.91
2023-05-18T20:21:54.563Z,98356.31
2023-05-18T20:24:21.504Z,98360.66
2023-05-18T20:26:48.135Z,98354.00
2023-05-18T20:29:14.746Z,98349.81
2023-05-18T20:31:41.517Z,98349.81
2023-05-18T20:34:08.378Z,98354.84
2023-05-18T20:36:35.989Z,98347.31
2023-05-18T20:39:02.747Z,98340.22
2023-05-18T20:41:29.707Z,98336.84
2023-05-18T20:43:57.391Z,98345.63
2023-05-18T20:46:25.105Z,98348.34
2023-05-18T20:48:55.373Z,98342.28
2023-05-18T20:51:23.316Z,98351.88
2023-05-18T20:53:50.170Z,98345.59
2023-05-18T20:56:18.141Z,98350.84
2023-05-18T20:58:48.825Z,98352.50
2023-05-18T21:01:18.921Z,98350.03
2023-05-18T21:03:46.069Z,98346.06
2023-05-18T21:06:14.104Z,98335.03
2023-05-18T21:08:41.333Z,98331.66
2023-05-18T21:11:07.934Z,98320.19
2023-05-18T21:13:36.814Z,98332.31
2023-05-18T21:16:06.506Z,98341.50
2023-05-18T21:18:34.384Z,98335.25
2023-05-18T21:21:02.200Z,98341.09
2023-05-18T21:23:29.003Z,98339.63
2023-05-18T21:25:56.885Z,98332.97
2023-05-18T21:28:25.003Z,98326.91
2023-05-18T21:30:52.681Z,98326.47
2023-05-18T21:33:19.813Z,98321.06
2023-05-18T21:35:46.628Z,98321.69
2023-05-18T21:38:13.493Z,98324.63
2023-05-18T21:40:43.590Z,98325.84
2023-05-18T21:43:10.772Z,98331.94
2023-05-18T21:45:37.782Z,98325.25
2023-05-18T21:48:04.852Z,98320.22
2023-05-18T21:50:34.641Z,98328.75
2023-05-18T21:53:04.961Z,98327.50
2023-05-18T21:55:32.049Z,98319.38
2023-05-18T21:57:58.885Z,98332.09
2023-05-18T22:00:26.135Z,98323.94
2023-05-18T22:02:52.949Z,98308.28
2023-05-18T22:05:19.778Z,98308.28
2023-05-18T22:07:46.423Z,98305.16
2023-05-18T22:10:13.102Z,98295.78
2023-05-18T22:12:41.858Z,98290.13
2023-05-18T22:15:10.448Z,98277.41
2023-05-18T22:17:37.270Z,98268.41
2023-05-18T22:20:06.517Z,98276.38
2023-05-18T22:22:33.214Z,98261.75
2023-05-18T22:24:59.818Z,98257.56
2023-05-18T22:27:26.757Z,98262.41
2023-05-18T22:29:53.371Z,98257.59
2023-05-18T22:32:21.186Z,98253.41
2023-05-18T22:34:47.988Z,98253.38
2023-05-18T22:37:14.630Z,98243.34
2023-05-18T22:39:41.355Z,98245.44
2023-05-18T22:42:08.032Z,98242.72
2023-05-18T22:44:34.645Z,98246.00
2023-05-18T22:47:01.298Z,98240.19
2023-05-18T22:49:27.867Z,98247.25
2023-05-18T22:51:54.442Z,98256.44
2023-05-18T22:54:21.743Z,98244.53
2023-05-18T22:56:48.312Z,98249.13
2023-05-18T22:59:14.918Z,98250.38
2023-05-18T23:01:41.619Z,98242.22
2023-05-18T23:04:08.334Z,98244.69
2023-05-18T23:06:35.008Z,98236.53
2023-05-18T23:09:01.787Z,98244.25
2023-05-18T23:11:28.654Z,98236.06
2023-05-18T23:13:55.498Z,98240.84
2023-05-18T23:16:24.107Z,98240.41
2023-05-18T23:18:53.673Z,98244.56
2023-05-18T23:21:21.750Z,98242.31
2023-05-18T23:23:48.382Z,98239.38
2023-05-18T23:26:15.082Z,98237.28
2023-05-18T23:28:41.763Z,98224.34
2023-05-18T23:31:08.389Z,98227.66
2023-05-18T23:33:35.555Z,98230.56
2023-05-18T23:36:03.987Z,98237.28
2023-05-18T23:38:35.122Z,98232.25
2023-05-18T23:41:04.222Z,98226.03
2023-05-18T23:43:31.164Z,98223.50
2023-05-18T23:45:59.708Z,98225.34
2023-05-18T23:48:27.649Z,98225.56
2023-05-18T23:51:02.449Z,98223.31
2023-05-18T23:53:32.326Z,98223.59
2023-05-18T23:56:00.065Z,98236.59
2023-05-18T23:58:32.151Z,98231.19
